sensor_id;sensor_type;location;lat;lon;timestamp;P1;durP1;ratioP1;P2;durP2;ratioP2
12635;SDS011;6383;50.830;7.210;2023-12-07T00:00:16;24.08;;;21.08;;
12635;SDS011;6383;50.830;7.210;2023-12-07T00:02:43;24.70;;;21.50;;
12635;SDS011;6383;50.830;7.210;2023-12-07T00:05:11;25.48;;;22.77;;
12635;SDS011;6383;50.830;7.210;2023-12-07T00:07:39;23.77;;;21.17;;
12635;SDS011;6383;50.830;7.210;2023-12-07T00:10:08;23.53;;;21.13;;
12635;SDS011;6383;50.830;7.210;2023-12-07T00:12:35;19.92;;;18.02;;
12635;SDS011;6383;50.830;7.210;2023-12-07T00:15:06;21.27;;;18.98;;
12635;SDS011;6383;50.830;7.210;2023-12-07T00:17:33;22.35;;;20.05;;
12635;SDS011;6383;50.830;7.210;2023-12-07T00:20:01;22.35;;;19.95;;
12635;SDS011;6383;50.830;7.210;2023-12-07T00:22:29;24.55;;;21.23;;
12635;SDS011;6383;50.830;7.210;2023-12-07T00:24:57;24.70;;;21.83;;
12635;SDS011;6383;50.830;7.210;2023-12-07T00:27:25;22.30;;;20.10;;
12635;SDS011;6383;50.830;7.210;2023-12-07T00:29:53;27.10;;;23.08;;
12635;SDS011;6383;50.830;7.210;2023-12-07T00:32:23;23.30;;;20.05;;
12635;SDS011;6383;50.830;7.210;2023-12-07T00:34:51;23.45;;;20.92;;
12635;SDS011;6383;50.830;7.210;2023-12-07T00:37:19;24.35;;;21.83;;
12635;SDS011;6383;50.830;7.210;2023-12-07T00:39:47;23.15;;;20.67;;
12635;SDS011;6383;50.830;7.210;2023-12-07T00:42:15;27.17;;;22.67;;
12635;SDS011;6383;50.830;7.210;2023-12-07T00:44:43;26.42;;;22.45;;
12635;SDS011;6383;50.830;7.210;2023-12-07T00:47:11;22.92;;;20.55;;
12635;SDS011;6383;50.830;7.210;2023-12-07T00:49:40;24.40;;;21.80;;
12635;SDS011;6383;50.830;7.210;2023-12-07T00:52:08;26.25;;;23.27;;
12635;SDS011;6383;50.830;7.210;2023-12-07T00:54:35;25.77;;;22.83;;
12635;SDS011;6383;50.830;7.210;2023-12-07T00:57:04;24.33;;;21.83;;
12635;SDS011;6383;50.830;7.210;2023-12-07T00:59:33;21.37;;;19.17;;
12635;SDS011;6383;50.830;7.210;2023-12-07T01:02:02;22.00;;;19.80;;
12635;SDS011;6383;50.830;7.210;2023-12-07T01:04:32;22.60;;;20.38;;
12635;SDS011;6383;50.830;7.210;2023-12-07T01:07:02;22.65;;;20.27;;
12635;SDS011;6383;50.830;7.210;2023-12-07T01:09:31;23.73;;;21.27;;
12635;SDS011;6383;50.830;7.210;2023-12-07T01:11:59;23.70;;;19.15;;
12635;SDS011;6383;50.830;7.210;2023-12-07T01:14:27;27.13;;;22.80;;
12635;SDS011;6383;50.830;7.210;2023-12-07T01:16:56;22.13;;;19.83;;
12635;SDS011;6383;50.830;7.210;2023-12-07T01:19:25;22.85;;;20.15;;
12635;SDS011;6383;50.830;7.210;2023-12-07T01:21:54;22.30;;;20.00;;
12635;SDS011;6383;50.830;7.210;2023-12-07T01:24:23;23.65;;;21.25;;
12635;SDS011;6383;50.830;7.210;2023-12-07T01:26:52;26.40;;;22.83;;
12635;SDS011;6383;50.830;7.210;2023-12-07T01:29:21;24.08;;;21.08;;
12635;SDS011;6383;50.830;7.210;2023-12-07T01:31:48;21.60;;;19.30;;
12635;SDS011;6383;50.830;7.210;2023-12-07T01:34:16;22.83;;;19.95;;
12635;SDS011;6383;50.830;7.210;2023-12-07T01:36:45;23.52;;;19.85;;
12635;SDS011;6383;50.830;7.210;2023-12-07T01:39:13;29.17;;;22.08;;
12635;SDS011;6383;50.830;7.210;2023-12-07T01:41:42;25.10;;;21.45;;
12635;SDS011;6383;50.830;7.210;2023-12-07T01:44:10;25.13;;;21.42;;
12635;SDS011;6383;50.830;7.210;2023-12-07T01:46:37;24.17;;;21.63;;
12635;SDS011;6383;50.830;7.210;2023-12-07T01:49:06;24.63;;;22.13;;
12635;SDS011;6383;50.830;7.210;2023-12-07T01:51:33;25.77;;;22.77;;
12635;SDS011;6383;50.830;7.210;2023-12-07T01:54:00;28.83;;;23.48;;
12635;SDS011;6383;50.830;7.210;2023-12-07T01:56:29;24.38;;;21.88;;
12635;SDS011;6383;50.830;7.210;2023-12-07T01:59:00;24.42;;;21.58;;
12635;SDS011;6383;50.830;7.210;2023-12-07T02:01:28;24.15;;;21.48;;
12635;SDS011;6383;50.830;7.210;2023-12-07T02:03:55;23.17;;;20.60;;
12635;SDS011;6383;50.830;7.210;2023-12-07T02:06:24;25.15;;;21.38;;
12635;SDS011;6383;50.830;7.210;2023-12-07T02:08:52;24.00;;;21.40;;
12635;SDS011;6383;50.830;7.210;2023-12-07T02:11:19;27.08;;;19.83;;
12635;SDS011;6383;50.830;7.210;2023-12-07T02:13:46;25.45;;;20.25;;
12635;SDS011;6383;50.830;7.210;2023-12-07T02:16:17;27.13;;;22.90;;
12635;SDS011;6383;50.830;7.210;2023-12-07T02:18:47;23.15;;;20.52;;
12635;SDS011;6383;50.830;7.210;2023-12-07T02:21:18;26.65;;;23.13;;
12635;SDS011;6383;50.830;7.210;2023-12-07T02:23:47;24.87;;;22.20;;
12635;SDS011;6383;50.830;7.210;2023-12-07T02:26:18;27.45;;;21.35;;
12635;SDS011;6383;50.830;7.210;2023-12-07T02:28:49;23.80;;;21.33;;
12635;SDS011;6383;50.830;7.210;2023-12-07T02:31:17;24.63;;;22.00;;
12635;SDS011;6383;50.830;7.210;2023-12-07T02:33:46;23.55;;;20.63;;
12635;SDS011;6383;50.830;7.210;2023-12-07T02:36:14;26.48;;;22.33;;
12635;SDS011;6383;50.830;7.210;2023-12-07T02:38:43;31.48;;;25.65;;
12635;SDS011;6383;50.830;7.210;2023-12-07T02:41:13;25.02;;;22.25;;
12635;SDS011;6383;50.830;7.210;2023-12-07T02:43:41;27.25;;;23.17;;
12635;SDS011;6383;50.830;7.210;2023-12-07T02:46:09;28.92;;;25.25;;
12635;SDS011;6383;50.830;7.210;2023-12-07T02:48:36;28.52;;;24.35;;
12635;SDS011;6383;50.830;7.210;2023-12-07T02:51:04;25.30;;;22.63;;
12635;SDS011;6383;50.830;7.210;2023-12-07T02:53:32;25.00;;;22.33;;
12635;SDS011;6383;50.830;7.210;2023-12-07T02:56:00;26.20;;;23.40;;
12635;SDS011;6383;50.830;7.210;2023-12-07T02:58:28;29.58;;;24.45;;
12635;SDS011;6383;50.830;7.210;2023-12-07T03:00:57;28.90;;;25.00;;
12635;SDS011;6383;50.830;7.210;2023-12-07T03:03:27;21.08;;;18.95;;
12635;SDS011;6383;50.830;7.210;2023-12-07T03:05:54;20.80;;;18.60;;
12635;SDS011;6383;50.830;7.210;2023-12-07T03:08:21;24.83;;;21.40;;
12635;SDS011;6383;50.830;7.210;2023-12-07T03:10:49;27.80;;;23.90;;
12635;SDS011;6383;50.830;7.210;2023-12-07T03:13:17;27.17;;;22.77;;
12635;SDS011;6383;50.830;7.210;2023-12-07T03:15:44;23.13;;;20.63;;
12635;SDS011;6383;50.830;7.210;2023-12-07T03:18:12;23.63;;;21.23;;
12635;SDS011;6383;50.830;7.210;2023-12-07T03:20:41;27.95;;;22.55;;
12635;SDS011;6383;50.830;7.210;2023-12-07T03:23:09;29.40;;;25.17;;
12635;SDS011;6383;50.830;7.210;2023-12-07T03:25:38;27.58;;;24.67;;
12635;SDS011;6383;50.830;7.210;2023-12-07T03:28:06;28.55;;;24.45;;
12635;SDS011;6383;50.830;7.210;2023-12-07T03:30:35;29.37;;;25.57;;
12635;SDS011;6383;50.830;7.210;2023-12-07T03:33:04;24.42;;;22.02;;
12635;SDS011;6383;50.830;7.210;2023-12-07T03:35:33;25.45;;;22.15;;
12635;SDS011;6383;50.830;7.210;2023-12-07T03:38:03;25.65;;;22.95;;
12635;SDS011;6383;50.830;7.210;2023-12-07T03:40:32;25.25;;;22.58;;
12635;SDS011;6383;50.830;7.210;2023-12-07T03:42:59;24.73;;;22.13;;
12635;SDS011;6383;50.830;7.210;2023-12-07T03:45:27;23.15;;;20.38;;
12635;SDS011;6383;50.830;7.210;2023-12-07T03:47:55;27.30;;;22.70;;
12635;SDS011;6383;50.830;7.210;2023-12-07T03:50:22;27.73;;;24.97;;
12635;SDS011;6383;50.830;7.210;2023-12-07T03:52:50;27.35;;;24.48;;
12635;SDS011;6383;50.830;7.210;2023-12-07T03:55:20;26.95;;;24.10;;
12635;SDS011;6383;50.830;7.210;2023-12-07T03:57:48;32.67;;;28.40;;
12635;SDS011;6383;50.830;7.210;2023-12-07T04:00:17;29.73;;;24.48;;
12635;SDS011;6383;50.830;7.210;2023-12-07T04:02:44;36.92;;;29.67;;
12635;SDS011;6383;50.830;7.210;2023-12-07T04:05:12;31.77;;;27.02;;
12635;SDS011;6383;50.830;7.210;2023-12-07T04:07:41;29.38;;;25.50;;
12635;SDS011;6383;50.830;7.210;2023-12-07T04:10:10;26.02;;;23.35;;
12635;SDS011;6383;50.830;7.210;2023-12-07T04:12:39;28.70;;;23.92;;
12635;SDS011;6383;50.830;7.210;2023-12-07T04:15:08;33.65;;;27.42;;
12635;SDS011;6383;50.830;7.210;2023-12-07T04:17:35;22.55;;;20.17;;
12635;SDS011;6383;50.830;7.210;2023-12-07T04:20:03;27.42;;;24.40;;
12635;SDS011;6383;50.830;7.210;2023-12-07T04:22:31;27.30;;;24.17;;
12635;SDS011;6383;50.830;7.210;2023-12-07T04:24:58;28.85;;;24.63;;
12635;SDS011;6383;50.830;7.210;2023-12-07T04:27:26;27.08;;;23.27;;
12635;SDS011;6383;50.830;7.210;2023-12-07T04:29:56;25.92;;;23.33;;
12635;SDS011;6383;50.830;7.210;2023-12-07T04:32:23;26.77;;;23.60;;
12635;SDS011;6383;50.830;7.210;2023-12-07T04:34:51;24.08;;;21.48;;
12635;SDS011;6383;50.830;7.210;2023-12-07T04:37:20;26.05;;;23.40;;
12635;SDS011;6383;50.830;7.210;2023-12-07T04:39:47;25.15;;;22.50;;
12635;SDS011;6383;50.830;7.210;2023-12-07T04:42:15;27.90;;;24.80;;
12635;SDS011;6383;50.830;7.210;2023-12-07T04:44:43;27.60;;;24.70;;
12635;SDS011;6383;50.830;7.210;2023-12-07T04:47:11;26.15;;;23.42;;
12635;SDS011;6383;50.830;7.210;2023-12-07T04:49:39;28.10;;;23.58;;
12635;SDS011;6383;50.830;7.210;2023-12-07T04:52:06;28.30;;;24.08;;
12635;SDS011;6383;50.830;7.210;2023-12-07T04:54:35;27.30;;;24.42;;
12635;SDS011;6383;50.830;7.210;2023-12-07T04:57:03;31.05;;;26.50;;
12635;SDS011;6383;50.830;7.210;2023-12-07T04:59:31;32.67;;;27.10;;
12635;SDS011;6383;50.830;7.210;2023-12-07T05:01:59;28.58;;;25.48;;
12635;SDS011;6383;50.830;7.210;2023-12-07T05:04:28;27.73;;;23.70;;
12635;SDS011;6383;50.830;7.210;2023-12-07T05:06:57;28.43;;;24.10;;
12635;SDS011;6383;50.830;7.210;2023-12-07T05:09:24;25.65;;;22.83;;
12635;SDS011;6383;50.830;7.210;2023-12-07T05:11:53;29.02;;;24.63;;
12635;SDS011;6383;50.830;7.210;2023-12-07T05:14:20;30.45;;;25.10;;
12635;SDS011;6383;50.830;7.210;2023-12-07T05:16:47;27.95;;;23.58;;
12635;SDS011;6383;50.830;7.210;2023-12-07T05:19:18;24.65;;;22.15;;
12635;SDS011;6383;50.830;7.210;2023-12-07T05:21:48;31.47;;;25.93;;
12635;SDS011;6383;50.830;7.210;2023-12-07T05:24:15;25.52;;;22.23;;
12635;SDS011;6383;50.830;7.210;2023-12-07T05:26:44;31.20;;;25.17;;
12635;SDS011;6383;50.830;7.210;2023-12-07T05:29:13;25.40;;;21.67;;
12635;SDS011;6383;50.830;7.210;2023-12-07T05:31:41;26.73;;;23.17;;
12635;SDS011;6383;50.830;7.210;2023-12-07T05:34:11;25.93;;;22.33;;
12635;SDS011;6383;50.830;7.210;2023-12-07T05:36:39;26.98;;;21.38;;
12635;SDS011;6383;50.830;7.210;2023-12-07T05:39:07;24.08;;;21.15;;
12635;SDS011;6383;50.830;7.210;2023-12-07T05:41:36;23.05;;;20.63;;
12635;SDS011;6383;50.830;7.210;2023-12-07T05:44:08;23.85;;;21.35;;
12635;SDS011;6383;50.830;7.210;2023-12-07T05:46:36;24.27;;;21.52;;
12635;SDS011;6383;50.830;7.210;2023-12-07T05:49:04;26.93;;;22.57;;
12635;SDS011;6383;50.830;7.210;2023-12-07T05:51:32;22.45;;;20.25;;
12635;SDS011;6383;50.830;7.210;2023-12-07T05:53:59;21.92;;;19.73;;
12635;SDS011;6383;50.830;7.210;2023-12-07T05:56:29;23.67;;;19.90;;
12635;SDS011;6383;50.830;7.210;2023-12-07T05:58:57;23.58;;;20.92;;
12635;SDS011;6383;50.830;7.210;2023-12-07T06:01:25;26.47;;;22.83;;
12635;SDS011;6383;50.830;7.210;2023-12-07T06:03:52;26.10;;;23.40;;
12635;SDS011;6383;50.830;7.210;2023-12-07T06:06:20;33.03;;;27.23;;
12635;SDS011;6383;50.830;7.210;2023-12-07T06:08:49;27.95;;;22.70;;
12635;SDS011;6383;50.830;7.210;2023-12-07T06:11:16;20.48;;;18.27;;
12635;SDS011;6383;50.830;7.210;2023-12-07T06:13:44;20.80;;;18.60;;
12635;SDS011;6383;50.830;7.210;2023-12-07T06:16:13;20.23;;;18.13;;
12635;SDS011;6383;50.830;7.210;2023-12-07T06:18:41;20.50;;;18.40;;
12635;SDS011;6383;50.830;7.210;2023-12-07T06:21:09;24.00;;;19.33;;
12635;SDS011;6383;50.830;7.210;2023-12-07T06:23:37;22.77;;;20.38;;
12635;SDS011;6383;50.830;7.210;2023-12-07T06:26:05;19.50;;;17.48;;
12635;SDS011;6383;50.830;7.210;2023-12-07T06:28:32;19.33;;;17.23;;
12635;SDS011;6383;50.830;7.210;2023-12-07T06:31:05;20.43;;;18.23;;
12635;SDS011;6383;50.830;7.210;2023-12-07T06:33:34;21.33;;;17.23;;
12635;SDS011;6383;50.830;7.210;2023-12-07T06:36:01;19.63;;;17.02;;
12635;SDS011;6383;50.830;7.210;2023-12-07T06:38:29;23.65;;;19.40;;
12635;SDS011;6383;50.830;7.210;2023-12-07T06:40:58;20.52;;;18.13;;
12635;SDS011;6383;50.830;7.210;2023-12-07T06:43:26;19.40;;;17.25;;
12635;SDS011;6383;50.830;7.210;2023-12-07T06:45:54;25.65;;;19.13;;
12635;SDS011;6383;50.830;7.210;2023-12-07T06:48:24;18.50;;;16.67;;
12635;SDS011;6383;50.830;7.210;2023-12-07T06:50:51;18.05;;;16.27;;
12635;SDS011;6383;50.830;7.210;2023-12-07T06:53:20;19.58;;;17.50;;
12635;SDS011;6383;50.830;7.210;2023-12-07T06:55:46;20.38;;;18.17;;
12635;SDS011;6383;50.830;7.210;2023-12-07T06:58:15;23.95;;;20.75;;
12635;SDS011;6383;50.830;7.210;2023-12-07T07:00:43;22.73;;;19.53;;
12635;SDS011;6383;50.830;7.210;2023-12-07T07:03:12;21.63;;;19.33;;
12635;SDS011;6383;50.830;7.210;2023-12-07T07:05:42;23.90;;;19.35;;
12635;SDS011;6383;50.830;7.210;2023-12-07T07:08:11;22.30;;;19.67;;
12635;SDS011;6383;50.830;7.210;2023-12-07T07:10:38;22.05;;;19.85;;
12635;SDS011;6383;50.830;7.210;2023-12-07T07:13:05;22.42;;;20.02;;
12635;SDS011;6383;50.830;7.210;2023-12-07T07:15:34;21.70;;;19.40;;
12635;SDS011;6383;50.830;7.210;2023-12-07T07:18:03;22.85;;;19.42;;
12635;SDS011;6383;50.830;7.210;2023-12-07T07:20:31;22.83;;;20.05;;
12635;SDS011;6383;50.830;7.210;2023-12-07T07:23:01;22.58;;;20.45;;
12635;SDS011;6383;50.830;7.210;2023-12-07T07:25:30;22.40;;;20.10;;
12635;SDS011;6383;50.830;7.210;2023-12-07T07:27:58;25.05;;;22.35;;
12635;SDS011;6383;50.830;7.210;2023-12-07T07:30:27;24.57;;;22.23;;
12635;SDS011;6383;50.830;7.210;2023-12-07T07:32:56;24.88;;;22.25;;
12635;SDS011;6383;50.830;7.210;2023-12-07T07:35:24;27.95;;;25.02;;
12635;SDS011;6383;50.830;7.210;2023-12-07T07:37:54;28.70;;;25.80;;
12635;SDS011;6383;50.830;7.210;2023-12-07T07:40:24;28.90;;;26.02;;
12635;SDS011;6383;50.830;7.210;2023-12-07T07:42:53;30.13;;;27.10;;
12635;SDS011;6383;50.830;7.210;2023-12-07T07:45:20;29.33;;;26.33;;
12635;SDS011;6383;50.830;7.210;2023-12-07T07:47:47;29.73;;;25.85;;
12635;SDS011;6383;50.830;7.210;2023-12-07T07:50:16;28.50;;;25.58;;
12635;SDS011;6383;50.830;7.210;2023-12-07T07:52:45;28.33;;;25.33;;
12635;SDS011;6383;50.830;7.210;2023-12-07T07:55:13;29.93;;;26.67;;
12635;SDS011;6383;50.830;7.210;2023-12-07T07:57:43;28.75;;;25.75;;
12635;SDS011;6383;50.830;7.210;2023-12-07T08:00:12;26.98;;;24.33;;
12635;SDS011;6383;50.830;7.210;2023-12-07T08:02:41;30.77;;;26.98;;
12635;SDS011;6383;50.830;7.210;2023-12-07T08:05:10;29.40;;;26.38;;
12635;SDS011;6383;50.830;7.210;2023-12-07T08:07:39;32.10;;;26.65;;
12635;SDS011;6383;50.830;7.210;2023-12-07T08:10:07;29.40;;;26.30;;
12635;SDS011;6383;50.830;7.210;2023-12-07T08:12:36;27.67;;;24.92;;
12635;SDS011;6383;50.830;7.210;2023-12-07T08:15:06;27.83;;;25.02;;
12635;SDS011;6383;50.830;7.210;2023-12-07T08:17:37;30.25;;;27.05;;
12635;SDS011;6383;50.830;7.210;2023-12-07T08:20:06;26.48;;;23.88;;
12635;SDS011;6383;50.830;7.210;2023-12-07T08:22:36;25.27;;;22.63;;
12635;SDS011;6383;50.830;7.210;2023-12-07T08:25:05;26.75;;;23.95;;
12635;SDS011;6383;50.830;7.210;2023-12-07T08:27:34;26.73;;;24.15;;
12635;SDS011;6383;50.830;7.210;2023-12-07T08:30:01;30.40;;;27.30;;
12635;SDS011;6383;50.830;7.210;2023-12-07T08:32:30;31.55;;;28.15;;
12635;SDS011;6383;50.830;7.210;2023-12-07T08:34:59;36.27;;;32.43;;
12635;SDS011;6383;50.830;7.210;2023-12-07T08:37:27;34.85;;;31.13;;
12635;SDS011;6383;50.830;7.210;2023-12-07T08:39:55;37.22;;;30.67;;
12635;SDS011;6383;50.830;7.210;2023-12-07T08:42:23;28.90;;;25.65;;
12635;SDS011;6383;50.830;7.210;2023-12-07T08:44:54;29.83;;;26.75;;
12635;SDS011;6383;50.830;7.210;2023-12-07T08:47:22;31.70;;;28.38;;
12635;SDS011;6383;50.830;7.210;2023-12-07T08:49:56;28.55;;;25.77;;
12635;SDS011;6383;50.830;7.210;2023-12-07T08:52:25;26.25;;;22.85;;
12635;SDS011;6383;50.830;7.210;2023-12-07T08:54:54;24.02;;;21.73;;
12635;SDS011;6383;50.830;7.210;2023-12-07T08:57:22;23.77;;;21.40;;
12635;SDS011;6383;50.830;7.210;2023-12-07T08:59:50;22.48;;;20.27;;
12635;SDS011;6383;50.830;7.210;2023-12-07T09:02:18;21.65;;;19.38;;
12635;SDS011;6383;50.830;7.210;2023-12-07T09:04:46;23.10;;;20.77;;
12635;SDS011;6383;50.830;7.210;2023-12-07T09:07:17;22.25;;;19.85;;
12635;SDS011;6383;50.830;7.210;2023-12-07T09:09:46;22.55;;;20.35;;
12635;SDS011;6383;50.830;7.210;2023-12-07T09:12:14;20.80;;;18.80;;
12635;SDS011;6383;50.830;7.210;2023-12-07T09:14:41;23.25;;;20.88;;
12635;SDS011;6383;50.830;7.210;2023-12-07T09:17:09;21.65;;;19.50;;
12635;SDS011;6383;50.830;7.210;2023-12-07T09:19:38;23.30;;;20.88;;
12635;SDS011;6383;50.830;7.210;2023-12-07T09:22:07;21.13;;;19.02;;
12635;SDS011;6383;50.830;7.210;2023-12-07T09:24:37;21.83;;;19.73;;
12635;SDS011;6383;50.830;7.210;2023-12-07T09:27:05;21.52;;;19.30;;
12635;SDS011;6383;50.830;7.210;2023-12-07T09:29:33;21.88;;;19.77;;
12635;SDS011;6383;50.830;7.210;2023-12-07T09:32:00;21.52;;;18.30;;
12635;SDS011;6383;50.830;7.210;2023-12-07T09:34:27;21.90;;;19.60;;
12635;SDS011;6383;50.830;7.210;2023-12-07T09:37:05;24.20;;;20.77;;
12635;SDS011;6383;50.830;7.210;2023-12-07T09:39:32;20.45;;;18.27;;
12635;SDS011;6383;50.830;7.210;2023-12-07T09:42:01;20.63;;;18.55;;
12635;SDS011;6383;50.830;7.210;2023-12-07T09:44:28;19.73;;;17.67;;
12635;SDS011;6383;50.830;7.210;2023-12-07T09:46:56;20.45;;;18.45;;
12635;SDS011;6383;50.830;7.210;2023-12-07T09:49:25;18.20;;;16.45;;
12635;SDS011;6383;50.830;7.210;2023-12-07T09:51:53;18.90;;;16.90;;
12635;SDS011;6383;50.830;7.210;2023-12-07T09:54:21;19.20;;;17.30;;
12635;SDS011;6383;50.830;7.210;2023-12-07T09:56:48;19.05;;;16.90;;
12635;SDS011;6383;50.830;7.210;2023-12-07T09:59:18;17.67;;;15.93;;
12635;SDS011;6383;50.830;7.210;2023-12-07T10:01:47;18.33;;;16.45;;
12635;SDS011;6383;50.830;7.210;2023-12-07T10:04:16;18.20;;;15.77;;
12635;SDS011;6383;50.830;7.210;2023-12-07T10:06:45;18.73;;;15.18;;
12635;SDS011;6383;50.830;7.210;2023-12-07T10:09:15;16.88;;;15.07;;
12635;SDS011;6383;50.830;7.210;2023-12-07T10:11:44;18.02;;;16.13;;
12635;SDS011;6383;50.830;7.210;2023-12-07T10:14:14;16.33;;;14.73;;
12635;SDS011;6383;50.830;7.210;2023-12-07T10:16:53;16.88;;;15.15;;
12635;SDS011;6383;50.830;7.210;2023-12-07T10:19:23;17.73;;;15.20;;
12635;SDS011;6383;50.830;7.210;2023-12-07T10:21:52;19.90;;;16.13;;
12635;SDS011;6383;50.830;7.210;2023-12-07T10:24:22;19.35;;;16.38;;
12635;SDS011;6383;50.830;7.210;2023-12-07T10:26:51;16.98;;;15.25;;
12635;SDS011;6383;50.830;7.210;2023-12-07T10:29:20;15.70;;;14.20;;
12635;SDS011;6383;50.830;7.210;2023-12-07T10:31:50;17.30;;;15.20;;
12635;SDS011;6383;50.830;7.210;2023-12-07T10:34:23;17.20;;;14.60;;
12635;SDS011;6383;50.830;7.210;2023-12-07T10:36:54;19.15;;;14.82;;
12635;SDS011;6383;50.830;7.210;2023-12-07T10:39:25;16.80;;;14.20;;
12635;SDS011;6383;50.830;7.210;2023-12-07T10:41:55;18.35;;;16.48;;
12635;SDS011;6383;50.830;7.210;2023-12-07T10:44:25;14.70;;;13.15;;
12635;SDS011;6383;50.830;7.210;2023-12-07T10:46:55;16.13;;;14.43;;
12635;SDS011;6383;50.830;7.210;2023-12-07T10:49:28;14.73;;;13.15;;
12635;SDS011;6383;50.830;7.210;2023-12-07T10:51:57;14.93;;;13.52;;
12635;SDS011;6383;50.830;7.210;2023-12-07T10:54:39;15.40;;;13.38;;
12635;SDS011;6383;50.830;7.210;2023-12-07T10:57:09;15.30;;;13.23;;
12635;SDS011;6383;50.830;7.210;2023-12-07T10:59:42;14.17;;;12.67;;
12635;SDS011;6383;50.830;7.210;2023-12-07T11:02:12;15.30;;;13.18;;
12635;SDS011;6383;50.830;7.210;2023-12-07T11:04:45;14.50;;;12.27;;
12635;SDS011;6383;50.830;7.210;2023-12-07T11:07:14;14.63;;;12.32;;
12635;SDS011;6383;50.830;7.210;2023-12-07T11:09:47;12.85;;;11.55;;
12635;SDS011;6383;50.830;7.210;2023-12-07T11:12:18;13.15;;;11.85;;
12635;SDS011;6383;50.830;7.210;2023-12-07T11:14:47;13.27;;;11.97;;
12635;SDS011;6383;50.830;7.210;2023-12-07T11:17:16;16.40;;;11.73;;
12635;SDS011;6383;50.830;7.210;2023-12-07T11:19:56;12.90;;;11.38;;
12635;SDS011;6383;50.830;7.210;2023-12-07T11:22:30;15.07;;;11.85;;
12635;SDS011;6383;50.830;7.210;2023-12-07T11:25:00;12.48;;;11.07;;
12635;SDS011;6383;50.830;7.210;2023-12-07T11:27:32;13.35;;;10.45;;
12635;SDS011;6383;50.830;7.210;2023-12-07T11:30:07;11.57;;;10.38;;
12635;SDS011;6383;50.830;7.210;2023-12-07T11:32:36;13.52;;;10.68;;
12635;SDS011;6383;50.830;7.210;2023-12-07T11:35:07;11.50;;;10.30;;
12635;SDS011;6383;50.830;7.210;2023-12-07T11:40:28;12.97;;;10.30;;
12635;SDS011;6383;50.830;7.210;2023-12-07T11:42:58;10.27;;;9.27;;
12635;SDS011;6383;50.830;7.210;2023-12-07T11:45:37;11.35;;;9.50;;
12635;SDS011;6383;50.830;7.210;2023-12-07T11:48:07;10.90;;;9.27;;
12635;SDS011;6383;50.830;7.210;2023-12-07T11:50:37;10.70;;;8.68;;
12635;SDS011;6383;50.830;7.210;2023-12-07T11:53:22;12.98;;;9.63;;
12635;SDS011;6383;50.830;7.210;2023-12-07T11:55:51;14.82;;;9.52;;
12635;SDS011;6383;50.830;7.210;2023-12-07T11:58:20;12.35;;;9.57;;
12635;SDS011;6383;50.830;7.210;2023-12-07T12:00:50;10.73;;;9.63;;
12635;SDS011;6383;50.830;7.210;2023-12-07T12:03:20;10.70;;;9.60;;
12635;SDS011;6383;50.830;7.210;2023-12-07T12:05:50;10.38;;;9.38;;
12635;SDS011;6383;50.830;7.210;2023-12-07T12:08:19;10.73;;;9.10;;
12635;SDS011;6383;50.830;7.210;2023-12-07T12:10:49;9.55;;;8.70;;
12635;SDS011;6383;50.830;7.210;2023-12-07T12:13:19;10.88;;;9.48;;
12635;SDS011;6383;50.830;7.210;2023-12-07T12:15:54;11.13;;;9.43;;
12635;SDS011;6383;50.830;7.210;2023-12-07T12:18:23;10.00;;;8.90;;
12635;SDS011;6383;50.830;7.210;2023-12-07T12:20:57;11.55;;;9.75;;
12635;SDS011;6383;50.830;7.210;2023-12-07T12:23:27;11.80;;;9.50;;
12635;SDS011;6383;50.830;7.210;2023-12-07T12:25:56;12.00;;;9.35;;
12635;SDS011;6383;50.830;7.210;2023-12-07T12:28:27;10.90;;;9.65;;
12635;SDS011;6383;50.830;7.210;2023-12-07T12:31:00;10.60;;;9.48;;
12635;SDS011;6383;50.830;7.210;2023-12-07T12:33:30;12.20;;;9.23;;
12635;SDS011;6383;50.830;7.210;2023-12-07T12:36:06;11.70;;;9.60;;
12635;SDS011;6383;50.830;7.210;2023-12-07T12:38:37;11.32;;;9.18;;
12635;SDS011;6383;50.830;7.210;2023-12-07T12:41:07;9.80;;;8.90;;
12635;SDS011;6383;50.830;7.210;2023-12-07T12:43:36;10.05;;;9.07;;
12635;SDS011;6383;50.830;7.210;2023-12-07T12:46:03;9.75;;;8.75;;
12635;SDS011;6383;50.830;7.210;2023-12-07T12:48:31;11.48;;;9.27;;
12635;SDS011;6383;50.830;7.210;2023-12-07T12:51:08;9.63;;;8.60;;
12635;SDS011;6383;50.830;7.210;2023-12-07T12:53:44;8.73;;;7.80;;
12635;SDS011;6383;50.830;7.210;2023-12-07T12:56:13;10.05;;;8.18;;
12635;SDS011;6383;50.830;7.210;2023-12-07T12:58:42;10.77;;;8.32;;
12635;SDS011;6383;50.830;7.210;2023-12-07T13:01:10;9.65;;;8.32;;
12635;SDS011;6383;50.830;7.210;2023-12-07T13:03:44;9.67;;;8.00;;
12635;SDS011;6383;50.830;7.210;2023-12-07T13:06:15;10.07;;;8.63;;
12635;SDS011;6383;50.830;7.210;2023-12-07T13:08:45;12.10;;;8.85;;
12635;SDS011;6383;50.830;7.210;2023-12-07T13:11:15;9.68;;;8.68;;
12635;SDS011;6383;50.830;7.210;2023-12-07T13:13:45;10.73;;;9.43;;
12635;SDS011;6383;50.830;7.210;2023-12-07T13:16:15;10.45;;;8.73;;
12635;SDS011;6383;50.830;7.210;2023-12-07T13:18:47;9.17;;;8.27;;
12635;SDS011;6383;50.830;7.210;2023-12-07T13:21:20;10.93;;;8.48;;
12635;SDS011;6383;50.830;7.210;2023-12-07T13:23:49;9.45;;;8.30;;
12635;SDS011;6383;50.830;7.210;2023-12-07T13:26:28;11.82;;;8.85;;
12635;SDS011;6383;50.830;7.210;2023-12-07T13:28:57;9.68;;;8.68;;
12635;SDS011;6383;50.830;7.210;2023-12-07T13:31:26;11.82;;;8.93;;
12635;SDS011;6383;50.830;7.210;2023-12-07T13:33:55;9.43;;;8.52;;
12635;SDS011;6383;50.830;7.210;2023-12-07T13:36:26;9.52;;;8.13;;
12635;SDS011;6383;50.830;7.210;2023-12-07T13:39:09;9.07;;;7.97;;
12635;SDS011;6383;50.830;7.210;2023-12-07T13:41:40;8.73;;;7.60;;
12635;SDS011;6383;50.830;7.210;2023-12-07T13:44:09;8.18;;;7.35;;
12635;SDS011;6383;50.830;7.210;2023-12-07T13:46:38;10.15;;;7.82;;
12635;SDS011;6383;50.830;7.210;2023-12-07T13:49:06;9.65;;;8.52;;
12635;SDS011;6383;50.830;7.210;2023-12-07T13:51:37;10.73;;;8.85;;
12635;SDS011;6383;50.830;7.210;2023-12-07T13:54:06;10.52;;;8.60;;
12635;SDS011;6383;50.830;7.210;2023-12-07T13:56:38;9.85;;;8.80;;
12635;SDS011;6383;50.830;7.210;2023-12-07T13:59:07;9.23;;;8.32;;
12635;SDS011;6383;50.830;7.210;2023-12-07T14:01:38;8.93;;;8.13;;
12635;SDS011;6383;50.830;7.210;2023-12-07T14:04:07;9.48;;;8.00;;
12635;SDS011;6383;50.830;7.210;2023-12-07T14:06:37;9.43;;;8.43;;
12635;SDS011;6383;50.830;7.210;2023-12-07T14:09:06;10.10;;;8.32;;
12635;SDS011;6383;50.830;7.210;2023-12-07T14:11:33;11.57;;;9.43;;
12635;SDS011;6383;50.830;7.210;2023-12-07T14:14:01;11.45;;;8.85;;
12635;SDS011;6383;50.830;7.210;2023-12-07T14:16:31;8.95;;;7.70;;
12635;SDS011;6383;50.830;7.210;2023-12-07T14:18:59;11.48;;;9.00;;
12635;SDS011;6383;50.830;7.210;2023-12-07T14:21:31;9.38;;;8.13;;
12635;SDS011;6383;50.830;7.210;2023-12-07T14:24:01;8.38;;;7.57;;
12635;SDS011;6383;50.830;7.210;2023-12-07T14:26:31;9.65;;;7.65;;
12635;SDS011;6383;50.830;7.210;2023-12-07T14:29:02;10.82;;;8.35;;
12635;SDS011;6383;50.830;7.210;2023-12-07T14:31:30;9.80;;;8.88;;
12635;SDS011;6383;50.830;7.210;2023-12-07T14:34:01;9.38;;;8.50;;
12635;SDS011;6383;50.830;7.210;2023-12-07T14:36:30;10.52;;;8.73;;
12635;SDS011;6383;50.830;7.210;2023-12-07T14:38:59;12.30;;;8.55;;
12635;SDS011;6383;50.830;7.210;2023-12-07T14:41:29;9.95;;;8.95;;
12635;SDS011;6383;50.830;7.210;2023-12-07T14:43:59;12.43;;;8.80;;
12635;SDS011;6383;50.830;7.210;2023-12-07T14:46:30;11.18;;;8.63;;
12635;SDS011;6383;50.830;7.210;2023-12-07T14:48:59;10.75;;;9.35;;
12635;SDS011;6383;50.830;7.210;2023-12-07T14:51:28;10.47;;;9.47;;